ADDS TAF Data INFO
IDs: Format: Raw Decoded Include METARs

Data at: 1327 UTC 21 Feb 2018

KECP 211317Z 2113/2212 12012KT P6SM BKN040
  FM220800 12005KT 6SM BR SCT015